Startpagina
METAR-TAF:

METAR-TAF

Vliegvelden :

Dubai International Airport

Dubai, Verenigde Arabische Emiraten

breedte: 25-15-10N, lengte: 055-21-52E, hoogte: 8 m

Actueel weer

Dit bericht is 19 minuten geleden gemaakt, om 05:00 UTC
Wind 9 kt uit het zuidzuidoosten
Temperatuur 31°C
Vochtigheid 52%
Druk 1017 hPa
Zicht 10 km of meer
geen wolken onder 1500 m en geen cumulonimbus

METAR: OMDB 220500Z 16009KT CAVOK 31/20 Q1017 NOSIG

Tijdstip: 09:19 (05:19 UTC)

Verwachting

Dit bericht is 6 uur en het 24 minuten geleden gemaakt, om 22:55 UTC
Verwachting geldig van 22 om 00 UTC tot 23 om 06 UTC
Wind 5 kt uit het oosten
Zicht 10 km of meer
geen wolken onder 1500 m en geen cumulonimbus
Wijzigt naar
van 22 om 04 UTC tot 22 om 06 UTC
Wind 10 kt uit het zuiden
Wijzigt naar
van 22 om 08 UTC tot 22 om 10 UTC
Wind 12 kt uit het noordwesten
Wijzigt naar
van 22 om 16 UTC tot 22 om 18 UTC
Wind 5 kt uit het zuidzuidoosten

TAF: OMDB 212255Z 2200/2306 09005KT CAVOK BECMG 2204/2206 19010KT BECMG 2208/2210 31012KT BECMG 2216/2218 15005KT

Waarnemingen en weersverwachtingen van meer dan 4000 vliegvelden (METAR en TAF).

De beschikbare stations zijn de gele en rode punten op de kaart.

Ga met uw muis naar het station om de naam te zien.

Klik dan om waarnemingen en weersverwachtingen te zien.

kaart wijzigen: klik op de groene knoppen met een zwart kruis om in te zoomen, op de groene knop met een streepje om uit te zoomen of op de groene pijlen voor aangrenzende kaarten.


METAR-TAF: